createdAt,value
2022-12-28T00:01:16.831Z,99502.03
2022-12-28T00:03:43.200Z,99501.88
2022-12-28T00:06:10.418Z,99483.94
2022-12-28T00:08:37.207Z,99490.31
2022-12-28T00:11:24.471Z,99482.53
2022-12-28T00:13:56.212Z,99478.06
2022-12-28T00:16:28.965Z,99468.22
2022-12-28T00:18:57.292Z,99472.63
2022-12-28T00:21:24.846Z,99466.00
2022-12-28T00:23:52.964Z,99458.38
2022-12-28T00:26:20.639Z,99452.63
2022-12-28T00:28:48.105Z,99451.31
2022-12-28T00:31:15.466Z,99458.31
2022-12-28T00:33:42.441Z,99462.94
2022-12-28T00:36:11.874Z,99459.38
2022-12-28T00:38:38.632Z,99456.81
2022-12-28T00:41:05.920Z,99454.25
2022-12-28T00:43:33.208Z,99447.81
2022-12-28T00:45:59.874Z,99459.94
2022-12-28T00:48:26.374Z,99467.06
2022-12-28T00:50:52.943Z,99466.19
2022-12-28T00:53:19.358Z,99456.56
2022-12-28T00:55:45.932Z,99450.25
2022-12-28T00:58:12.350Z,99457.19
2022-12-28T01:00:38.771Z,99452.88
2022-12-28T01:03:05.256Z,99453.69
2022-12-28T01:05:32.066Z,99453.88
2022-12-28T01:07:58.517Z,99459.63
2022-12-28T01:10:24.976Z,99458.88
2022-12-28T01:12:51.462Z,99459.41
2022-12-28T01:15:17.985Z,99449.16
2022-12-28T01:17:44.401Z,99447.53
2022-12-28T01:20:11.238Z,99451.97
2022-12-28T01:22:37.637Z,99450.22
2022-12-28T01:25:04.523Z,99444.91
2022-12-28T01:27:31.913Z,99447.09
2022-12-28T01:29:58.305Z,99431.47
2022-12-28T01:32:24.724Z,99422.97
2022-12-28T01:34:51.345Z,99417.56
2022-12-28T01:37:17.725Z,99411.84
2022-12-28T01:39:44.102Z,99404.59
2022-12-28T01:42:17.455Z,99403.59
2022-12-28T01:44:46.892Z,99409.03
2022-12-28T01:47:28.195Z,99399.47
2022-12-28T01:50:03.403Z,99392.56
2022-12-28T01:52:37.598Z,99386.28
2022-12-28T01:55:11.466Z,99377.63
2022-12-28T01:57:48.605Z,99379.34
2022-12-28T02:00:16.448Z,99368.97
2022-12-28T02:03:07.298Z,99365.06
2022-12-28T02:05:38.949Z,99368.44
2022-12-28T02:08:13.588Z,99371.16
2022-12-28T02:10:45.807Z,99366.31
2022-12-28T02:13:15.336Z,99368.06
2022-12-28T02:15:42.310Z,99361.47
2022-12-28T02:18:10.817Z,99357.59
2022-12-28T02:20:54.555Z,99353.38
2022-12-28T02:23:47.509Z,99338.25
2022-12-28T02:26:33.864Z,99334.50
2022-12-28T02:29:18.480Z,99338.41
2022-12-28T02:32:15.501Z,99320.47
2022-12-28T02:34:47.411Z,99318.84
2022-12-28T02:37:20.684Z,99305.88
2022-12-28T02:39:56.921Z,99314.00
2022-12-28T02:42:25.237Z,99305.63
2022-12-28T02:45:10.262Z,99301.59
2022-12-28T02:47:56.130Z,99299.13
2022-12-28T02:50:30.822Z,99299.03
2022-12-28T02:53:21.665Z,99292.41
2022-12-28T02:56:40.710Z,99294.00
2022-12-28T02:59:13.590Z,99289.41
2022-12-28T03:02:02.531Z,99287.53
2022-12-28T03:05:47.345Z,99294.16
2022-12-28T03:08:26.232Z,99281.09
2022-12-28T03:11:04.155Z,99267.97
2022-12-28T03:13:52.988Z,99261.78
2022-12-28T03:16:28.432Z,99256.66
2022-12-28T03:19:26.381Z,99240.56
2022-12-28T03:22:14.033Z,99245.44
2022-12-28T03:25:02.903Z,99243.94
2022-12-28T03:27:49.159Z,99251.78
2022-12-28T03:30:38.383Z,99243.94
2022-12-28T03:33:06.333Z,99248.81
2022-12-28T03:35:45.934Z,99236.78
2022-12-28T03:38:27.242Z,99233.94
2022-12-28T03:41:08.693Z,99220.03
2022-12-28T03:43:42.499Z,99218.97
2022-12-28T03:46:21.186Z,99223.16
2022-12-28T03:48:51.771Z,99230.03
2022-12-28T03:51:22.322Z,99217.97
2022-12-28T03:53:48.877Z,99219.09
2022-12-28T03:56:18.580Z,99210.03
2022-12-28T03:58:46.216Z,99215.81
2022-12-28T04:01:12.839Z,99221.50
2022-12-28T04:03:40.116Z,99219.22
2022-12-28T04:06:07.661Z,99225.16
2022-12-28T04:08:34.875Z,99208.41
2022-12-28T04:11:01.616Z,99198.94
2022-12-28T04:13:31.732Z,99190.31
2022-12-28T04:16:04.433Z,99184.50
2022-12-28T04:18:32.352Z,99175.72
2022-12-28T04:20:59.181Z,99180.56
2022-12-28T04:23:25.817Z,99177.03
2022-12-28T04:26:04.840Z,99175.41
2022-12-28T04:28:32.788Z,99171.22
2022-12-28T04:31:01.133Z,99176.75
2022-12-28T04:33:28.371Z,99174.69
2022-12-28T04:36:03.454Z,99164.19
2022-12-28T04:38:29.850Z,99174.56
2022-12-28T04:40:56.259Z,99180.94
2022-12-28T04:43:22.640Z,99168.88
2022-12-28T04:45:57.387Z,99176.84
2022-12-28T04:48:24.101Z,99176.56
2022-12-28T04:50:50.603Z,99176.25
2022-12-28T04:53:16.995Z,99168.44
2022-12-28T04:55:43.389Z,99171.81
2022-12-28T04:58:09.757Z,99166.66
2022-12-28T05:00:36.254Z,99167.06
2022-12-28T05:03:02.867Z,99167.28
2022-12-28T05:05:31.779Z,99158.19
2022-12-28T05:08:01.895Z,99168.34
2022-12-28T05:10:29.344Z,99164.00
2022-12-28T05:12:56.707Z,99161.56
2022-12-28T05:15:23.137Z,99163.59
2022-12-28T05:17:49.679Z,99152.34
2022-12-28T05:20:17.939Z,99151.25
2022-12-28T05:22:44.383Z,99145.31
2022-12-28T05:25:10.970Z,99142.75
2022-12-28T05:27:37.415Z,99143.28
2022-12-28T05:30:04.364Z,99148.44
2022-12-28T05:32:30.755Z,99148.97
2022-12-28T05:34:57.120Z,99145.16
2022-12-28T05:37:23.484Z,99142.88
2022-12-28T05:39:49.908Z,99133.28
2022-12-28T05:42:16.345Z,99127.16
2022-12-28T05:44:42.811Z,99130.41
2022-12-28T05:47:09.232Z,99135.47
2022-12-28T05:49:35.777Z,99137.72
2022-12-28T05:52:02.176Z,99137.53
2022-12-28T05:54:28.607Z,99135.84
2022-12-28T05:56:55.044Z,99127.03
2022-12-28T05:59:21.547Z,99135.13
2022-12-28T06:01:48.107Z,99129.41
2022-12-28T06:04:17.315Z,99134.91
2022-12-28T06:06:44.923Z,99132.81
2022-12-28T06:09:11.495Z,99130.31
2022-12-28T06:11:37.941Z,99141.22
2022-12-28T06:14:05.755Z,99132.41
2022-12-28T06:16:34.943Z,99133.88
2022-12-28T06:19:05.391Z,99123.59
2022-12-28T06:21:33.409Z,99120.09
2022-12-28T06:24:00.806Z,99122.59
2022-12-28T06:26:29.407Z,99125.81
2022-12-28T06:28:56.358Z,99120.41
2022-12-28T06:31:29.201Z,99121.03
2022-12-28T06:33:57.626Z,99117.34
2022-12-28T06:36:27.399Z,99118.69
2022-12-28T06:38:56.089Z,99124.84
2022-12-28T06:41:23.209Z,99117.28
2022-12-28T06:43:50.453Z,99115.22
2022-12-28T06:46:19.208Z,99104.44
2022-12-28T06:48:46.109Z,99108.47
2022-12-28T06:51:19.078Z,99102.72
2022-12-28T06:53:47.035Z,99096.63
2022-12-28T06:56:16.334Z,99092.81
2022-12-28T06:58:44.203Z,99090.66
2022-12-28T07:01:17.604Z,99082.66
2022-12-28T07:03:45.809Z,99077.19
2022-12-28T07:06:15.559Z,99079.63
2022-12-28T07:08:42.540Z,99071.56
2022-12-28T07:11:11.947Z,99061.25
2022-12-28T07:13:38.510Z,99064.34
2022-12-28T07:16:07.667Z,99063.53
2022-12-28T07:18:34.121Z,99055.69
2022-12-28T07:21:06.323Z,99061.75
2022-12-28T07:23:34.073Z,99052.81
2022-12-28T07:26:12.464Z,99054.63
2022-12-28T07:28:40.460Z,99045.56
2022-12-28T07:31:08.783Z,99051.09
2022-12-28T07:33:36.697Z,99045.31
2022-12-28T07:36:05.225Z,99049.88
2022-12-28T07:38:31.686Z,99044.56
2022-12-28T07:41:15.808Z,99035.94
2022-12-28T07:43:42.472Z,99042.38
2022-12-28T07:46:13.451Z,99044.69
2022-12-28T07:48:40.959Z,99047.16
2022-12-28T07:51:15.669Z,99031.22
2022-12-28T07:53:44.140Z,99042.03
2022-12-28T07:56:11.160Z,99039.81
2022-12-28T07:58:38.203Z,99043.31
2022-12-28T08:01:08.414Z,99035.81
2022-12-28T08:03:36.002Z,99039.00
2022-12-28T08:06:07.594Z,99038.19
2022-12-28T08:08:53.669Z,99034.03
2022-12-28T08:11:26.363Z,99034.03
2022-12-28T08:13:54.607Z,99031.75
2022-12-28T08:16:23.354Z,99028.56
2022-12-28T08:18:50.018Z,99029.03
2022-12-28T08:21:19.782Z,99026.97
2022-12-28T08:23:46.337Z,99029.56
2022-12-28T08:26:19.640Z,99030.69
2022-12-28T08:28:47.408Z,99030.53
2022-12-28T08:31:16.437Z,99028.47
2022-12-28T08:33:43.249Z,99031.34
2022-12-28T08:36:10.259Z,99027.97
2022-12-28T08:38:38.429Z,99032.19
2022-12-28T08:41:07.406Z,99023.81
2022-12-28T08:43:34.968Z,99024.16
2022-12-28T08:46:05.683Z,99027.34
2022-12-28T08:48:32.722Z,99022.03
2022-12-28T08:51:07.721Z,99024.63
2022-12-28T08:53:35.399Z,99017.22
2022-12-28T08:56:10.248Z,99019.00
2022-12-28T08:58:37.727Z,99021.25
2022-12-28T09:01:17.497Z,99016.56
2022-12-28T09:03:46.481Z,99015.91
2022-12-28T09:06:15.615Z,99020.78
2022-12-28T09:08:56.824Z,99011.09
2022-12-28T09:11:29.318Z,99008.50
2022-12-28T09:13:55.789Z,99007.69
2022-12-28T09:16:25.612Z,99006.41
2022-12-28T09:18:57.162Z,99001.53
2022-12-28T09:21:26.397Z,98999.44
2022-12-28T09:23:52.883Z,98987.66
2022-12-28T09:26:21.932Z,98985.72
2022-12-28T09:28:53.169Z,98992.16
2022-12-28T09:31:21.252Z,98993.09
2022-12-28T09:34:34.929Z,98988.75
2022-12-28T09:36:49.548Z,98990.19
2022-12-28T09:39:18.972Z,98995.03
2022-12-28T09:42:02.251Z,98989.03
2022-12-28T09:44:34.647Z,98976.44
2022-12-28T09:47:24.246Z,98979.31
2022-12-28T09:50:18.598Z,98977.34
2022-12-28T09:53:16.891Z,98975.53
2022-12-28T09:56:10.896Z,98976.00
2022-12-28T09:58:44.013Z,98978.72
2022-12-28T10:01:16.938Z,98969.03
2022-12-28T10:03:45.014Z,98975.63
2022-12-28T10:06:22.367Z,98972.56
2022-12-28T10:08:52.718Z,98969.63
2022-12-28T10:11:23.352Z,98960.19
2022-12-28T10:13:56.788Z,98969.34
2022-12-28T10:16:25.279Z,98961.25
2022-12-28T10:18:52.111Z,98949.59
2022-12-28T10:21:21.690Z,98951.13
2022-12-28T10:24:29.698Z,98942.88
2022-12-28T10:26:44.129Z,98942.53
2022-12-28T10:29:18.587Z,98942.66
2022-12-28T10:31:57.936Z,98938.59
2022-12-28T10:34:25.120Z,98937.69
2022-12-28T10:36:54.254Z,98938.63
2022-12-28T10:39:28.879Z,98932.72
2022-12-28T10:41:58.081Z,98932.03
2022-12-28T10:44:40.062Z,98919.28
2022-12-28T10:47:18.153Z,98924.72
2022-12-28T10:50:10.394Z,98919.19
2022-12-28T10:52:37.896Z,98927.94
2022-12-28T10:55:28.873Z,98921.88
2022-12-28T10:58:29.045Z,98917.16
2022-12-28T11:01:03.671Z,98911.25
2022-12-28T11:03:37.255Z,98909.13
2022-12-28T11:06:13.291Z,98903.78
2022-12-28T11:08:41.396Z,98901.88
2022-12-28T11:11:18.090Z,98897.97
2022-12-28T11:13:52.495Z,98897.25
2022-12-28T11:16:18.977Z,98880.09
2022-12-28T11:18:45.566Z,98881.72
2022-12-28T11:21:19.711Z,98896.09
2022-12-28T11:23:48.764Z,98886.53
2022-12-28T11:26:15.415Z,98881.97
2022-12-28T11:28:45.079Z,98879.66
2022-12-28T11:31:22.064Z,98862.31
2022-12-28T11:33:52.823Z,98860.41
2022-12-28T11:36:20.846Z,98868.97
2022-12-28T11:38:49.327Z,98857.50
2022-12-28T11:41:30.285Z,98854.03
2022-12-28T11:44:09.404Z,98853.16
2022-12-28T11:46:37.507Z,98852.88
2022-12-28T11:49:22.340Z,98850.38
2022-12-28T11:52:17.686Z,98837.91
2022-12-28T11:55:23.557Z,98834.97
2022-12-28T11:57:50.223Z,98827.84
2022-12-28T12:00:21.829Z,98823.69
2022-12-28T12:02:53.571Z,98813.53
2022-12-28T12:05:38.796Z,98811.00
2022-12-28T12:08:11.455Z,98814.16
2022-12-28T12:10:39.609Z,98800.22
2022-12-28T12:13:27.613Z,98786.22
2022-12-28T12:15:59.061Z,98799.72
2022-12-28T12:18:28.926Z,98780.69
2022-12-28T12:21:15.628Z,98778.84
2022-12-28T12:23:52.073Z,98782.06
2022-12-28T12:26:33.560Z,98774.88
2022-12-28T12:29:05.089Z,98781.88
2022-12-28T12:31:39.428Z,98770.50
2022-12-28T12:34:24.023Z,98774.88
2022-12-28T12:37:29.485Z,98776.94
2022-12-28T12:40:01.660Z,98776.47
2022-12-28T12:43:04.909Z,98774.28
2022-12-28T12:45:53.528Z,98763.66
2022-12-28T12:48:57.416Z,98765.59
2022-12-28T12:51:35.882Z,98767.56
2022-12-28T12:54:39.284Z,98767.16
2022-12-28T12:57:18.363Z,98762.97
2022-12-28T13:00:03.661Z,98754.34
2022-12-28T13:02:46.842Z,98756.13
2022-12-28T13:05:18.861Z,98756.13
2022-12-28T13:07:45.763Z,98752.38
2022-12-28T13:10:44.555Z,98755.09
2022-12-28T13:13:22.730Z,98745.56
2022-12-28T13:15:49.184Z,98741.00
2022-12-28T13:18:44.002Z,98743.84
2022-12-28T13:21:12.339Z,98736.31
2022-12-28T13:23:44.680Z,98728.75
2022-12-28T13:26:13.208Z,98722.78
2022-12-28T13:28:50.041Z,98724.00
2022-12-28T13:31:22.906Z,98717.44
2022-12-28T13:34:15.487Z,98716.47
2022-12-28T13:36:57.953Z,98715.31
2022-12-28T13:39:30.063Z,98713.75
2022-12-28T13:41:59.062Z,98715.16
2022-12-28T13:44:34.541Z,98714.78
2022-12-28T13:47:12.928Z,98716.38
2022-12-28T13:49:56.492Z,98712.16
2022-12-28T13:52:33.429Z,98715.97
2022-12-28T13:55:06.243Z,98706.19
2022-12-28T13:57:46.708Z,98701.38
2022-12-28T14:00:17.663Z,98704.97
2022-12-28T14:02:44.426Z,98695.34
2022-12-28T14:05:19.556Z,98698.53
2022-12-28T14:07:47.982Z,98699.47
2022-12-28T14:10:15.220Z,98698.25
2022-12-28T14:12:42.380Z,98700.03
2022-12-28T14:15:10.616Z,98697.03
2022-12-28T14:17:38.594Z,98703.06
2022-12-28T14:20:05.810Z,98700.25
2022-12-28T14:22:37.842Z,98702.84
2022-12-28T14:25:16.519Z,98707.19
2022-12-28T14:27:46.479Z,98698.22
2022-12-28T14:30:42.743Z,98702.97
2022-12-28T14:33:24.415Z,98699.81
2022-12-28T14:35:59.998Z,98703.19
2022-12-28T14:38:34.116Z,98696.59
2022-12-28T14:41:02.318Z,98694.22
2022-12-28T14:43:34.561Z,98695.00
2022-12-28T14:46:34.254Z,98690.22
2022-12-28T14:49:30.410Z,98692.59
2022-12-28T14:52:08.716Z,98690.63
2022-12-28T14:54:46.501Z,98693.22
2022-12-28T14:57:21.304Z,98686.44
2022-12-28T14:59:56.370Z,98688.97
2022-12-28T15:02:35.200Z,98684.19
2022-12-28T15:05:02.519Z,98677.00
2022-12-28T15:07:31.315Z,98681.81
2022-12-28T15:09:57.730Z,98672.22
2022-12-28T15:12:24.208Z,98672.00
2022-12-28T15:14:50.899Z,98673.19
2022-12-28T15:17:18.129Z,98672.78
2022-12-28T15:19:45.454Z,98667.22
2022-12-28T15:22:12.994Z,98671.22
2022-12-28T15:24:41.300Z,98665.22
2022-12-28T15:27:07.680Z,98674.38
2022-12-28T15:32:20.617Z,98657.59
2022-12-28T15:34:46.989Z,98664.22
2022-12-28T15:37:13.405Z,98666.00
2022-12-28T15:39:39.835Z,98660.59
2022-12-28T15:42:06.293Z,98655.19
2022-12-28T15:44:32.982Z,98653.78
2022-12-28T15:46:59.903Z,98651.00
2022-12-28T15:49:27.019Z,98654.97
2022-12-28T15:51:53.923Z,98644.59
2022-12-28T15:54:20.530Z,98648.38
2022-12-28T15:56:54.096Z,98642.38
2022-12-28T15:59:21.128Z,98638.00
2022-12-28T16:01:49.152Z,98641.13
2022-12-28T16:04:16.152Z,98639.16
2022-12-28T16:06:45.013Z,98636.56
2022-12-28T16:09:12.657Z,98640.91
2022-12-28T16:11:39.226Z,98637.34
2022-12-28T16:14:07.253Z,98628.72
2022-12-28T16:16:37.336Z,98621.56
2022-12-28T16:19:04.639Z,98624.97
2022-12-28T16:21:31.024Z,98618.81
2022-12-28T16:24:00.720Z,98625.34
2022-12-28T16:26:28.788Z,98626.34
2022-12-28T16:28:55.493Z,98634.13
2022-12-28T16:31:33.264Z,98640.13
2022-12-28T16:34:02.939Z,98641.69
2022-12-28T16:36:29.519Z,98639.72
2022-12-28T16:38:57.151Z,98635.72
2022-12-28T16:41:24.781Z,98632.34
2022-12-28T16:43:51.335Z,98633.75
2022-12-28T16:46:18.606Z,98629.75
2022-12-28T16:48:45.079Z,98624.94
2022-12-28T16:51:12.256Z,98623.75
2022-12-28T16:53:38.738Z,98622.75
2022-12-28T16:56:06.468Z,98618.53
2022-12-28T16:58:33.416Z,98614.31
2022-12-28T17:01:06.168Z,98617.28
2022-12-28T17:03:32.775Z,98611.69
2022-12-28T17:05:59.493Z,98601.69
2022-12-28T17:08:26.181Z,98601.00
2022-12-28T17:10:52.920Z,98603.81
2022-12-28T17:13:19.415Z,98613.53
2022-12-28T17:15:45.927Z,98611.28
2022-12-28T17:18:16.768Z,98611.50
2022-12-28T17:20:45.186Z,98616.91
2022-12-28T17:23:12.954Z,98621.38
2022-12-28T17:25:39.706Z,98625.50
2022-12-28T17:28:06.573Z,98606.91
2022-12-28T17:30:33.369Z,98604.09
2022-12-28T17:33:00.172Z,98603.94
2022-12-28T17:35:26.561Z,98601.59
2022-12-28T17:37:53.016Z,98599.75
2022-12-28T17:40:19.847Z,98600.00
2022-12-28T17:42:46.310Z,98606.19
2022-12-28T17:45:12.766Z,98601.69
2022-12-28T17:47:39.206Z,98590.31
2022-12-28T17:50:06.623Z,98591.63
2022-12-28T17:52:33.585Z,98589.88
2022-12-28T17:55:00.003Z,98585.50
2022-12-28T17:57:26.360Z,98584.72
2022-12-28T17:59:52.848Z,98584.72
2022-12-28T18:02:19.391Z,98582.53
2022-12-28T18:04:46.136Z,98577.75
2022-12-28T18:07:12.649Z,98568.94
2022-12-28T18:09:39.047Z,98564.19
2022-12-28T18:12:05.502Z,98557.91
2022-12-28T18:14:31.905Z,98561.06
2022-12-28T18:16:58.433Z,98556.84
2022-12-28T18:19:25.079Z,98551.09
2022-12-28T18:21:51.787Z,98552.25
2022-12-28T18:24:20.847Z,98532.72
2022-12-28T18:26:47.529Z,98533.91
2022-12-28T18:29:13.999Z,98525.72
2022-12-28T18:31:40.520Z,98538.84
2022-12-28T18:34:07.399Z,98537.16
2022-12-28T18:36:34.212Z,98524.59
2022-12-28T18:39:02.589Z,98530.00
2022-12-28T18:41:33.985Z,98532.16
2022-12-28T18:44:02.523Z,98524.59
2022-12-28T18:46:29.001Z,98522.56
2022-12-28T18:48:56.457Z,98520.59
2022-12-28T18:51:22.848Z,98516.53
2022-12-28T18:53:51.124Z,98514.41
2022-12-28T18:56:21.415Z,98518.03
2022-12-28T18:58:53.492Z,98512.50
2022-12-28T19:04:10.003Z,98507.41
2022-12-28T19:06:37.586Z,98503.66
2022-12-28T19:09:06.067Z,98507.22
2022-12-28T19:11:32.995Z,98503.66
2022-12-28T19:14:02.183Z,98507.22
2022-12-28T19:16:31.667Z,98498.22
2022-12-28T19:18:59.912Z,98498.78
2022-12-28T19:21:30.772Z,98484.63
2022-12-28T19:24:03.052Z,98492.63
2022-12-28T19:26:31.433Z,98486.28
2022-12-28T19:28:58.185Z,98485.66
2022-12-28T19:31:25.462Z,98482.09
2022-12-28T19:33:51.913Z,98480.13
2022-12-28T19:36:19.171Z,98474.31
2022-12-28T19:38:45.976Z,98478.09
2022-12-28T19:41:15.161Z,98473.03
2022-12-28T19:43:42.887Z,98471.28
2022-12-28T19:46:20.202Z,98468.69
2022-12-28T19:48:47.237Z,98469.41
2022-12-28T19:51:14.336Z,98463.44
2022-12-28T19:53:41.010Z,98459.41
2022-12-28T19:56:17.315Z,98456.03
2022-12-28T19:58:45.687Z,98454.25
2022-12-28T20:01:18.426Z,98458.53
2022-12-28T20:03:46.071Z,98455.81
2022-12-28T20:06:17.949Z,98447.03
2022-12-28T20:08:49.399Z,98441.94
2022-12-28T20:11:17.171Z,98437.06
2022-12-28T20:13:48.796Z,98438.41
2022-12-28T20:16:15.319Z,98442.75
2022-12-28T20:18:48.781Z,98440.38
2022-12-28T20:21:19.957Z,98435.63
2022-12-28T20:23:50.467Z,98426.34
2022-12-28T20:26:18.210Z,98417.34
2022-12-28T20:28:45.069Z,98412.97
2022-12-28T20:31:14.339Z,98416.53
2022-12-28T20:33:43.174Z,98410.75
2022-12-28T20:36:15.611Z,98409.75
2022-12-28T20:38:42.176Z,98397.81
2022-12-28T20:41:35.578Z,98398.00
2022-12-28T20:44:05.699Z,98403.38
2022-12-28T20:46:32.468Z,98405.97
2022-12-28T20:48:59.841Z,98398.22
2022-12-28T20:51:27.217Z,98390.81
2022-12-28T20:53:54.510Z,98395.56
2022-12-28T20:56:22.894Z,98380.25
2022-12-28T20:58:49.542Z,98381.22
2022-12-28T21:01:16.984Z,98369.03
2022-12-28T21:03:44.418Z,98384.94
2022-12-28T21:06:11.342Z,98376.50
2022-12-28T21:08:37.845Z,98365.56
2022-12-28T21:11:04.455Z,98375.75
2022-12-28T21:13:30.985Z,98370.59
2022-12-28T21:15:58.208Z,98370.59
2022-12-28T21:18:24.877Z,98360.25
2022-12-28T21:20:55.335Z,98361.25
2022-12-28T21:23:22.186Z,98357.03
2022-12-28T21:25:48.703Z,98352.66
2022-12-28T21:28:15.229Z,98366.59
2022-12-28T21:30:41.648Z,98354.03
2022-12-28T21:33:08.391Z,98356.44
2022-12-28T21:35:35.038Z,98350.53
2022-12-28T21:38:04.047Z,98350.69
2022-12-28T21:40:30.443Z,98343.50
2022-12-28T21:42:56.846Z,98350.69
2022-12-28T21:45:23.226Z,98343.88
2022-12-28T21:47:49.635Z,98333.16
2022-12-28T21:50:19.981Z,98335.19
2022-12-28T21:52:46.400Z,98331.03
2022-12-28T21:55:31.493Z,98332.19
2022-12-28T21:57:59.630Z,98322.81
2022-12-28T22:00:45.437Z,98324.69
2022-12-28T22:03:30.940Z,98316.78
2022-12-28T22:06:03.618Z,98316.44
2022-12-28T22:08:49.717Z,98316.25
2022-12-28T22:11:35.462Z,98317.28
2022-12-28T22:14:02.765Z,98319.09
2022-12-28T22:16:34.654Z,98307.63
2022-12-28T22:19:03.625Z,98304.03
2022-12-28T22:21:31.510Z,98298.91
2022-12-28T22:23:58.186Z,98301.28
2022-12-28T22:26:24.743Z,98297.75
2022-12-28T22:28:51.141Z,98285.63
2022-12-28T22:31:17.967Z,98290.22
2022-12-28T22:33:44.905Z,98285.44
2022-12-28T22:36:13.425Z,98279.31
2022-12-28T22:38:39.949Z,98287.09
2022-12-28T22:41:06.639Z,98281.50
2022-12-28T22:43:33.470Z,98279.13
2022-12-28T22:46:11.734Z,98286.72
2022-12-28T22:48:38.279Z,98289.34
2022-12-28T22:51:10.588Z,98278.19
2022-12-28T22:53:37.426Z,98273.19
2022-12-28T22:56:06.654Z,98275.81
2022-12-28T22:58:34.297Z,98281.00
2022-12-28T23:01:07.612Z,98271.47
2022-12-28T23:03:36.674Z,98271.88
2022-12-28T23:06:04.609Z,98270.88
2022-12-28T23:08:31.406Z,98268.28
2022-12-28T23:11:00.749Z,98265.91
2022-12-28T23:13:28.160Z,98267.31
2022-12-28T23:15:59.874Z,98262.91
2022-12-28T23:18:44.917Z,98264.53
2022-12-28T23:21:38.493Z,98261.56
2022-12-28T23:24:28.885Z,98267.91
2022-12-28T23:27:14.128Z,98264.13
2022-12-28T23:29:40.598Z,98263.56
2022-12-28T23:32:07.412Z,98255.00
2022-12-28T23:34:33.795Z,98251.59
2022-12-28T23:37:00.236Z,98259.97
2022-12-28T23:39:26.755Z,98249.03
2022-12-28T23:41:53.512Z,98250.81
2022-12-28T23:44:23.200Z,98247.00
2022-12-28T23:46:55.194Z,98246.22
2022-12-28T23:49:24.863Z,98242.66
2022-12-28T23:51:51.358Z,98245.63
2022-12-28T23:54:19.280Z,98247.22
2022-12-28T23:56:46.473Z,98239.25
2022-12-28T23:59:12.905Z,98235.25
